Time;durP1;ratioP1;P1;durP2;ratioP2;P2;SDS_P1;SDS_P2;PMS_P1;PMS_P2;Temp;Humidity;BMP_temperature;BMP_pressure;BME280_temperature;BME280_humidity;BME280_pressure;Samples;Min_cycle;Max_cycle;Signal;HPM_P1;HPM_P2
2022/08/07 00:01:00;;;;;;;2.93;0.80;;;;;;;;;;5066516;28;20208;-71
2022/08/07 00:03:27;;;;;;;0.90;0.70;;;;;;;;;;5068519;28;20199;-71
2022/08/07 00:05:53;;;;;;;3.47;0.97;;;;;;;;;;5059079;28;20564;-71
2022/08/07 00:08:21;;;;;;;3.30;0.80;;;;;;;;;;5065438;28;20170;-71
2022/08/07 00:10:48;;;;;;;2.30;0.90;;;;;;;;;;5056901;28;20201;-71
2022/08/07 00:13:14;;;;;;;1.13;0.90;;;;;;;;;;5066271;28;20181;-71
2022/08/07 00:15:41;;;;;;;2.83;1.03;;;;;;;;;;5073395;28;20581;-71
2022/08/07 00:18:08;;;;;;;0.83;0.80;;;;;;;;;;5074490;28;20268;-71
2022/08/07 00:20:35;;;;;;;2.90;1.10;;;;;;;;;;5064242;28;20181;-71
2022/08/07 00:23:01;;;;;;;1.97;1.00;;;;;;;;;;5059132;28;20538;-71
2022/08/07 00:25:27;;;;;;;2.10;0.97;;;;;;;;;;5070005;28;20204;-71
2022/08/07 00:27:53;;;;;;;2.27;0.93;;;;;;;;;;5071419;28;20188;-71
2022/08/07 00:30:20;;;;;;;0.90;0.90;;;;;;;;;;5066821;28;20181;-71
2022/08/07 00:32:48;;;;;;;1.37;0.90;;;;;;;;;;5074984;28;20709;-71
2022/08/07 00:35:14;;;;;;;1.27;1.00;;;;;;;;;;5069901;28;20212;-71
2022/08/07 00:37:40;;;;;;;1.93;1.03;;;;;;;;;;5065158;28;20185;-71
2022/08/07 00:40:07;;;;;;;1.00;1.00;;;;;;;;;;5066628;28;20739;-71
2022/08/07 00:42:33;;;;;;;1.37;0.90;;;;;;;;;;5066281;28;20308;-71
2022/08/07 00:44:59;;;;;;;1.73;1.00;;;;;;;;;;5071105;28;20205;-71
2022/08/07 00:47:26;;;;;;;2.93;1.20;;;;;;;;;;5071111;28;20185;-71
2022/08/07 00:49:52;;;;;;;2.27;1.30;;;;;;;;;;5068376;28;20595;-71
2022/08/07 00:52:18;;;;;;;2.03;1.00;;;;;;;;;;5067274;28;20205;-71
2022/08/07 00:54:44;;;;;;;1.20;0.80;;;;;;;;;;5070760;28;20196;-71
2022/08/07 00:57:11;;;;;;;1.57;0.93;;;;;;;;;;5068135;28;20292;-71
2022/08/07 00:59:38;;;;;;;1.60;0.93;;;;;;;;;;5061844;28;20673;-71
2022/08/07 01:02:05;;;;;;;0.80;0.80;;;;;;;;;;5066544;28;20192;-71
2022/08/07 01:04:31;;;;;;;3.07;0.90;;;;;;;;;;5072834;28;20195;-71
2022/08/07 01:06:58;;;;;;;3.17;1.00;;;;;;;;;;5066927;28;20181;-71
2022/08/07 01:09:24;;;;;;;2.17;0.90;;;;;;;;;;5077906;28;20432;-71
2022/08/07 01:11:51;;;;;;;1.63;0.73;;;;;;;;;;5059611;28;20309;-71
2022/08/07 01:14:19;;;;;;;2.20;1.00;;;;;;;;;;5074968;28;20192;-72
2022/08/07 01:16:45;;;;;;;1.00;0.80;;;;;;;;;;5069115;28;20220;-71
2022/08/07 01:19:11;;;;;;;1.37;0.80;;;;;;;;;;5064602;28;20189;-71
2022/08/07 01:21:38;;;;;;;1.70;0.80;;;;;;;;;;5069752;28;20249;-71
2022/08/07 01:24:05;;;;;;;0.97;0.80;;;;;;;;;;5059634;28;20706;-71
2022/08/07 01:26:32;;;;;;;1.13;0.80;;;;;;;;;;5066263;28;20213;-72
2022/08/07 01:28:59;;;;;;;1.83;0.80;;;;;;;;;;5066804;28;20430;-71
2022/08/07 01:31:32;;;;;;;1.53;0.73;;;;;;;;;;5058650;28;20242;-71
2022/08/07 01:34:00;;;;;;;2.07;0.80;;;;;;;;;;5077684;28;20760;-72
2022/08/07 01:36:31;;;;;;;0.97;0.80;;;;;;;;;;5069425;28;20209;-71
2022/08/07 01:39:00;;;;;;;0.80;0.80;;;;;;;;;;5055211;28;20211;-71
2022/08/07 01:41:26;;;;;;;0.70;0.70;;;;;;;;;;5073902;28;20188;-71
2022/08/07 01:43:54;;;;;;;1.27;0.80;;;;;;;;;;5075800;28;20204;-71
2022/08/07 01:46:20;;;;;;;1.03;0.70;;;;;;;;;;5058216;28;20212;-71
2022/08/07 01:48:47;;;;;;;1.80;0.77;;;;;;;;;;5063270;28;20191;-71
2022/08/07 01:51:23;;;;;;;2.23;0.90;;;;;;;;;;5061588;28;20719;-71
2022/08/07 01:53:51;;;;;;;0.83;0.60;;;;;;;;;;5065113;28;20189;-71
2022/08/07 01:56:21;;;;;;;1.17;0.60;;;;;;;;;;5067728;28;20301;-71
2022/08/07 01:58:49;;;;;;;0.80;0.73;;;;;;;;;;5083075;28;20235;-71
2022/08/07 02:01:23;;;;;;;0.73;0.73;;;;;;;;;;5052620;28;20178;-71
2022/08/07 02:03:55;;;;;;;0.70;0.70;;;;;;;;;;5071581;28;20645;-71
2022/08/07 02:06:23;;;;;;;1.20;0.80;;;;;;;;;;5067118;28;20692;-71
2022/08/07 02:08:49;;;;;;;2.13;0.90;;;;;;;;;;5069302;28;20212;-71
2022/08/07 02:11:16;;;;;;;1.27;0.70;;;;;;;;;;5062299;28;20201;-71
2022/08/07 02:13:43;;;;;;;4.00;0.73;;;;;;;;;;5066526;28;20260;-71
2022/08/07 02:16:10;;;;;;;1.10;0.80;;;;;;;;;;5062805;28;20717;-71
2022/08/07 02:18:38;;;;;;;1.27;0.80;;;;;;;;;;5066697;28;20287;-70
2022/08/07 02:21:05;;;;;;;1.33;0.90;;;;;;;;;;5067963;28;20192;-71
2022/08/07 02:23:34;;;;;;;3.10;0.90;;;;;;;;;;5067739;28;20185;-71
2022/08/07 02:26:01;;;;;;;1.40;0.83;;;;;;;;;;5068350;28;20270;-71
2022/08/07 02:28:28;;;;;;;2.63;0.90;;;;;;;;;;5064234;28;20189;-71
2022/08/07 02:31:00;;;;;;;2.90;0.90;;;;;;;;;;5058931;28;20198;-71
2022/08/07 02:33:28;;;;;;;1.17;0.80;;;;;;;;;;5070013;28;20200;-71
2022/08/07 02:35:55;;;;;;;0.80;0.80;;;;;;;;;;5071622;28;20210;-71
2022/08/07 02:38:26;;;;;;;1.07;0.80;;;;;;;;;;5067241;28;20205;-71
2022/08/07 02:40:52;;;;;;;1.70;0.77;;;;;;;;;;5065258;28;20579;-71
2022/08/07 02:43:19;;;;;;;1.73;1.00;;;;;;;;;;5068719;28;20178;-71
2022/08/07 02:45:46;;;;;;;0.80;0.70;;;;;;;;;;5067460;28;20758;-71
2022/08/07 02:48:13;;;;;;;1.47;1.00;;;;;;;;;;5064436;28;20182;-71
2022/08/07 02:50:43;;;;;;;1.17;0.90;;;;;;;;;;5068351;28;20712;-71
2022/08/07 02:53:12;;;;;;;0.70;0.70;;;;;;;;;;5068628;28;20536;-71
2022/08/07 02:55:42;;;;;;;1.17;0.80;;;;;;;;;;5064587;28;20585;-72
2022/08/07 02:58:11;;;;;;;0.77;0.77;;;;;;;;;;5057667;28;20261;-71
2022/08/07 03:00:40;;;;;;;1.27;0.70;;;;;;;;;;5058032;28;20170;-71
2022/08/07 03:03:09;;;;;;;0.90;0.70;;;;;;;;;;5058930;28;20185;-71
2022/08/07 03:05:39;;;;;;;0.60;0.60;;;;;;;;;;5064711;28;20204;-71
2022/08/07 03:08:06;;;;;;;1.33;0.70;;;;;;;;;;5081473;28;20214;-71
2022/08/07 03:10:33;;;;;;;0.70;0.70;;;;;;;;;;5062576;28;20197;-71
2022/08/07 03:13:00;;;;;;;2.27;0.90;;;;;;;;;;5064739;28;20716;-71
2022/08/07 03:15:27;;;;;;;1.57;0.80;;;;;;;;;;5068353;28;20213;-71
2022/08/07 03:17:53;;;;;;;1.43;0.90;;;;;;;;;;5069891;28;20181;-71
2022/08/07 03:20:20;;;;;;;1.23;0.90;;;;;;;;;;5074717;28;20178;-71
2022/08/07 03:22:47;;;;;;;3.03;0.87;;;;;;;;;;5073607;28;20184;-71
2022/08/07 03:25:13;;;;;;;1.57;0.90;;;;;;;;;;5066196;28;20200;-71
2022/08/07 03:27:43;;;;;;;1.40;0.77;;;;;;;;;;5071870;28;20223;-71
2022/08/07 03:30:13;;;;;;;1.77;0.80;;;;;;;;;;5062854;28;20730;-71
2022/08/07 03:32:42;;;;;;;0.90;0.77;;;;;;;;;;5069667;28;20568;-71
2022/08/07 03:35:12;;;;;;;1.47;0.80;;;;;;;;;;5069048;28;20236;-71
2022/08/07 03:37:40;;;;;;;1.27;0.80;;;;;;;;;;5062838;28;20710;-71
2022/08/07 03:40:07;;;;;;;1.80;0.80;;;;;;;;;;5071191;28;20256;-71
2022/08/07 03:42:35;;;;;;;1.10;0.90;;;;;;;;;;5052674;28;20196;-71
2022/08/07 03:45:04;;;;;;;2.37;0.80;;;;;;;;;;5064165;28;20209;-71
2022/08/07 03:47:31;;;;;;;1.10;0.80;;;;;;;;;;5076450;28;20192;-71
2022/08/07 03:49:58;;;;;;;0.80;0.70;;;;;;;;;;5085623;28;20309;-71
2022/08/07 03:52:28;;;;;;;0.87;0.70;;;;;;;;;;5082064;28;20504;-71
2022/08/07 03:55:01;;;;;;;2.57;0.90;;;;;;;;;;5081226;28;20212;-71
2022/08/07 03:57:29;;;;;;;1.33;0.80;;;;;;;;;;5077944;28;20236;-71
2022/08/07 03:59:55;;;;;;;1.73;0.90;;;;;;;;;;5068834;28;20682;-71
2022/08/07 04:02:22;;;;;;;1.23;0.80;;;;;;;;;;5064474;28;20650;-71
2022/08/07 04:04:49;;;;;;;0.70;0.70;;;;;;;;;;5075247;28;20934;-71
2022/08/07 04:07:16;;;;;;;1.10;1.00;;;;;;;;;;5076105;28;20267;-71
2022/08/07 04:09:48;;;;;;;1.13;0.80;;;;;;;;;;5060822;28;20243;-70
2022/08/07 04:12:15;;;;;;;2.10;0.80;;;;;;;;;;5069976;28;20318;-70
2022/08/07 04:14:43;;;;;;;1.13;0.90;;;;;;;;;;5060800;28;20193;-71
2022/08/07 04:17:10;;;;;;;2.30;0.90;;;;;;;;;;5065340;28;20678;-70
2022/08/07 04:19:39;;;;;;;1.87;1.00;;;;;;;;;;5064338;28;20178;-70
2022/08/07 04:22:05;;;;;;;0.90;0.80;;;;;;;;;;5060510;28;20189;-70
2022/08/07 04:24:36;;;;;;;1.17;0.93;;;;;;;;;;5065801;28;20452;-71
2022/08/07 04:27:05;;;;;;;1.27;0.90;;;;;;;;;;5050838;28;20281;-70
2022/08/07 04:29:33;;;;;;;1.73;0.97;;;;;;;;;;5080122;28;20181;-70
2022/08/07 04:32:00;;;;;;;1.10;1.00;;;;;;;;;;5072910;28;20181;-70
2022/08/07 04:34:27;;;;;;;1.43;1.13;;;;;;;;;;5062508;28;20231;-71
2022/08/07 04:36:53;;;;;;;2.00;0.90;;;;;;;;;;5070093;28;20254;-71
2022/08/07 04:39:20;;;;;;;1.33;0.93;;;;;;;;;;5060629;28;20193;-70
2022/08/07 04:41:46;;;;;;;0.83;0.83;;;;;;;;;;5068175;28;20181;-70
2022/08/07 04:44:12;;;;;;;1.47;1.00;;;;;;;;;;5079414;28;20184;-70
2022/08/07 04:46:50;;;;;;;1.93;1.00;;;;;;;;;;5077184;28;20221;-70
2022/08/07 04:49:17;;;;;;;1.20;0.80;;;;;;;;;;5068099;28;20234;-70
2022/08/07 04:51:43;;;;;;;3.97;1.00;;;;;;;;;;5062272;28;20178;-70
2022/08/07 04:54:17;;;;;;;1.77;1.03;;;;;;;;;;5070303;28;20192;-70
2022/08/07 04:56:45;;;;;;;1.67;0.87;;;;;;;;;;5072425;28;20258;-70
2022/08/07 04:59:23;;;;;;;0.97;0.80;;;;;;;;;;5068946;28;20204;-70
2022/08/07 05:01:52;;;;;;;1.30;1.00;;;;;;;;;;5060158;28;20174;-71
2022/08/07 05:04:22;;;;;;;1.00;0.90;;;;;;;;;;5059273;28;20273;-70
2022/08/07 05:06:56;;;;;;;2.40;1.00;;;;;;;;;;5058089;28;20254;-70
2022/08/07 05:09:39;;;;;;;3.40;1.10;;;;;;;;;;5058069;28;20215;-70
2022/08/07 05:12:07;;;;;;;0.80;0.80;;;;;;;;;;5068680;28;20588;-71
2022/08/07 05:14:38;;;;;;;1.70;1.20;;;;;;;;;;5070923;28;20247;-70
2022/08/07 05:17:07;;;;;;;2.23;0.90;;;;;;;;;;5072889;28;20201;-70
2022/08/07 05:19:40;;;;;;;1.83;0.80;;;;;;;;;;5067996;28;20269;-71
2022/08/07 05:22:08;;;;;;;1.27;0.87;;;;;;;;;;5064348;28;20184;-70
2022/08/07 05:24:38;;;;;;;1.00;0.90;;;;;;;;;;5068058;28;20176;-71
2022/08/07 05:27:05;;;;;;;0.80;0.80;;;;;;;;;;5088463;28;21023;-70
2022/08/07 05:29:33;;;;;;;1.27;0.80;;;;;;;;;;5064426;28;20211;-71
2022/08/07 05:32:00;;;;;;;1.67;0.87;;;;;;;;;;5066733;28;20238;-71
2022/08/07 05:34:30;;;;;;;3.30;0.90;;;;;;;;;;5065984;28;20240;-70
2022/08/07 05:36:56;;;;;;;1.83;1.00;;;;;;;;;;5063733;28;20721;-71
2022/08/07 05:39:28;;;;;;;6.10;0.90;;;;;;;;;;5075050;28;20181;-71
2022/08/07 05:41:58;;;;;;;3.37;1.10;;;;;;;;;;5081083;28;20176;-70
2022/08/07 05:44:26;;;;;;;0.93;0.90;;;;;;;;;;5068057;28;20726;-70
2022/08/07 05:46:53;;;;;;;2.73;0.90;;;;;;;;;;5069659;28;20224;-71
2022/08/07 05:49:23;;;;;;;1.73;1.00;;;;;;;;;;5064589;28;20181;-70
2022/08/07 05:51:51;;;;;;;3.23;0.93;;;;;;;;;;5066683;28;20528;-71
2022/08/07 05:54:20;;;;;;;0.80;0.80;;;;;;;;;;5065691;28;20276;-70
2022/08/07 05:56:48;;;;;;;1.27;0.90;;;;;;;;;;5063934;28;20687;-71
2022/08/07 05:59:15;;;;;;;0.70;0.70;;;;;;;;;;5076378;28;20209;-71
2022/08/07 06:01:44;;;;;;;2.27;0.90;;;;;;;;;;5078254;28;20181;-70
2022/08/07 06:04:11;;;;;;;2.43;1.00;;;;;;;;;;5062896;28;20180;-71
2022/08/07 06:06:40;;;;;;;1.23;0.80;;;;;;;;;;5067657;28;20212;-71
2022/08/07 06:09:08;;;;;;;1.03;0.80;;;;;;;;;;5066896;28;20188;-71
2022/08/07 06:11:38;;;;;;;1.47;0.90;;;;;;;;;;5066871;28;20271;-71
2022/08/07 06:14:05;;;;;;;1.60;0.90;;;;;;;;;;5065776;28;20185;-70
2022/08/07 06:16:32;;;;;;;2.83;0.97;;;;;;;;;;5054947;28;20724;-71
2022/08/07 06:19:01;;;;;;;1.63;0.73;;;;;;;;;;5060918;28;20558;-71
2022/08/07 06:21:28;;;;;;;2.70;0.90;;;;;;;;;;5069390;28;20192;-71
2022/08/07 06:23:57;;;;;;;1.00;0.83;;;;;;;;;;5068228;28;20646;-71
2022/08/07 06:26:24;;;;;;;3.57;1.10;;;;;;;;;;5069692;28;20896;-71
2022/08/07 06:28:52;;;;;;;2.83;0.93;;;;;;;;;;5065207;28;20266;-71
2022/08/07 06:31:18;;;;;;;3.20;0.90;;;;;;;;;;5066409;28;20189;-71
2022/08/07 06:33:46;;;;;;;3.30;0.90;;;;;;;;;;5060336;28;20252;-71
2022/08/07 06:36:12;;;;;;;1.87;1.00;;;;;;;;;;5074630;28;20567;-71
2022/08/07 06:38:44;;;;;;;2.30;1.00;;;;;;;;;;5078979;28;20177;-71
2022/08/07 06:41:30;;;;;;;0.80;0.80;;;;;;;;;;5061574;28;20177;-71
2022/08/07 06:43:57;;;;;;;1.40;1.00;;;;;;;;;;5073413;28;20626;-71
2022/08/07 06:46:24;;;;;;;2.30;0.97;;;;;;;;;;5067419;28;20216;-71
2022/08/07 06:48:52;;;;;;;4.10;0.80;;;;;;;;;;5072832;28;20192;-70
2022/08/07 06:51:23;;;;;;;2.07;0.80;;;;;;;;;;5068271;28;20272;-70
2022/08/07 06:53:50;;;;;;;1.27;0.90;;;;;;;;;;5064880;28;20193;-71
2022/08/07 06:56:38;;;;;;;2.23;0.93;;;;;;;;;;5072207;28;20221;-71
2022/08/07 06:59:08;;;;;;;1.40;0.90;;;;;;;;;;5063562;28;20246;-71
2022/08/07 07:01:38;;;;;;;1.50;0.93;;;;;;;;;;5071581;28;20689;-71
2022/08/07 07:04:05;;;;;;;1.40;0.87;;;;;;;;;;5071355;28;20181;-71
2022/08/07 07:06:32;;;;;;;0.80;0.80;;;;;;;;;;5073597;28;20201;-71
2022/08/07 07:09:19;;;;;;;1.80;1.03;;;;;;;;;;5067049;28;20613;-71
2022/08/07 07:11:48;;;;;;;1.63;1.00;;;;;;;;;;5072860;28;20200;-71
2022/08/07 07:14:15;;;;;;;1.10;0.80;;;;;;;;;;5068461;28;20181;-71
2022/08/07 07:16:42;;;;;;;1.20;0.80;;;;;;;;;;5068156;28;20209;-71
2022/08/07 07:19:11;;;;;;;0.93;0.80;;;;;;;;;;5063240;28;20182;-71
2022/08/07 07:21:40;;;;;;;1.73;0.93;;;;;;;;;;5067893;28;20295;-71
2022/08/07 07:24:09;;;;;;;2.40;0.90;;;;;;;;;;5072021;28;20181;-71
2022/08/07 07:26:36;;;;;;;1.20;1.00;;;;;;;;;;5071265;28;20208;-71
2022/08/07 07:29:05;;;;;;;1.23;1.10;;;;;;;;;;5062793;28;20273;-71
2022/08/07 07:31:33;;;;;;;1.60;1.10;;;;;;;;;;5064682;28;20189;-71
2022/08/07 07:34:03;;;;;;;1.47;1.10;;;;;;;;;;5083138;28;20925;-71
2022/08/07 07:36:29;;;;;;;0.80;0.80;;;;;;;;;;5080134;28;20220;-71
2022/08/07 07:38:56;;;;;;;1.80;0.93;;;;;;;;;;5065791;28;20268;-71
2022/08/07 07:41:23;;;;;;;0.83;0.83;;;;;;;;;;5064548;28;20189;-71
2022/08/07 07:43:51;;;;;;;0.97;0.97;;;;;;;;;;5072204;28;20184;-71
2022/08/07 07:46:17;;;;;;;0.90;0.80;;;;;;;;;;5059837;28;20630;-71
2022/08/07 07:48:45;;;;;;;1.07;0.90;;;;;;;;;;5070443;28;20265;-71
2022/08/07 07:51:12;;;;;;;0.90;0.90;;;;;;;;;;5066853;28;20186;-71
2022/08/07 07:53:40;;;;;;;2.03;1.00;;;;;;;;;;5069870;28;20269;-71
2022/08/07 07:56:07;;;;;;;1.33;1.00;;;;;;;;;;5067101;28;20418;-72
2022/08/07 07:58:34;;;;;;;3.87;1.00;;;;;;;;;;5068989;28;20533;-71
2022/08/07 08:01:01;;;;;;;1.40;1.00;;;;;;;;;;5064890;28;20209;-71
2022/08/07 08:03:28;;;;;;;1.43;1.03;;;;;;;;;;5055534;28;20177;-71
2022/08/07 08:05:54;;;;;;;1.60;0.80;;;;;;;;;;5067683;28;20287;-71
2022/08/07 08:08:21;;;;;;;1.63;1.00;;;;;;;;;;5069618;28;20587;-71
2022/08/07 08:10:47;;;;;;;1.83;1.00;;;;;;;;;;5071692;28;20651;-71
2022/08/07 08:13:14;;;;;;;1.90;1.20;;;;;;;;;;5072579;28;20181;-71
2022/08/07 08:15:41;;;;;;;1.80;1.00;;;;;;;;;;5059306;28;20263;-72
2022/08/07 08:18:08;;;;;;;1.20;0.90;;;;;;;;;;5069430;28;20689;-71
2022/08/07 08:20:35;;;;;;;3.17;1.90;;;;;;;;;;5071616;28;20173;-71
2022/08/07 08:28:36;;;;;;;1.80;1.40;;;;;;;;;;5069209;28;20209;-71
2022/08/07 08:31:03;;;;;;;1.30;1.20;;;;;;;;;;5069611;28;20188;-71
2022/08/07 08:33:34;;;;;;;2.47;1.30;;;;;;;;;;5060867;28;20181;-71
2022/08/07 08:36:02;;;;;;;2.17;1.30;;;;;;;;;;5055830;28;20213;-71
2022/08/07 08:38:32;;;;;;;1.70;1.33;;;;;;;;;;5068460;28;20205;-71
2022/08/07 08:41:02;;;;;;;2.60;1.30;;;;;;;;;;5060706;28;20192;-71
2022/08/07 08:43:35;;;;;;;1.00;1.00;;;;;;;;;;5061369;28;20185;-71
2022/08/07 08:46:18;;;;;;;1.57;1.20;;;;;;;;;;5071981;28;21682;-71
2022/08/07 08:48:54;;;;;;;1.30;1.20;;;;;;;;;;5060947;28;20196;-71
2022/08/07 08:51:31;;;;;;;1.40;1.20;;;;;;;;;;5069380;28;21174;-71
2022/08/07 08:54:03;;;;;;;2.07;1.10;;;;;;;;;;5067954;28;20618;-71
2022/08/07 08:56:37;;;;;;;2.70;1.30;;;;;;;;;;5066541;28;20212;-71
2022/08/07 08:59:14;;;;;;;2.10;1.50;;;;;;;;;;5065437;28;20261;-71
2022/08/07 09:01:52;;;;;;;1.40;1.30;;;;;;;;;;5069653;28;20228;-71
2022/08/07 09:04:21;;;;;;;2.37;1.30;;;;;;;;;;5063329;28;20178;-72
2022/08/07 09:06:47;;;;;;;1.83;1.10;;;;;;;;;;5055645;28;20665;-71
2022/08/07 09:09:32;;;;;;;2.30;1.23;;;;;;;;;;5064789;28;20208;-71
2022/08/07 09:12:11;;;;;;;1.50;1.40;;;;;;;;;;5068222;28;20216;-72
2022/08/07 09:14:50;;;;;;;2.57;1.40;;;;;;;;;;5070617;28;20188;-72
2022/08/07 09:17:34;;;;;;;1.60;1.50;;;;;;;;;;5063882;28;20223;-72
2022/08/07 09:20:09;;;;;;;1.80;1.40;;;;;;;;;;5068528;28;20666;-71
2022/08/07 09:22:44;;;;;;;1.50;1.40;;;;;;;;;;5059710;28;20189;-71
2022/08/07 09:25:30;;;;;;;1.57;1.47;;;;;;;;;;5065145;28;20249;-77
2022/08/07 09:28:03;;;;;;;1.40;1.30;;;;;;;;;;5064043;28;20271;-77
2022/08/07 09:30:46;;;;;;;1.47;1.30;;;;;;;;;;5075267;28;20297;-71
2022/08/07 09:33:32;;;;;;;1.77;1.40;;;;;;;;;;5069071;28;20197;-75
2022/08/07 09:36:01;;;;;;;1.40;1.20;;;;;;;;;;5066811;28;20234;-74
2022/08/07 09:38:52;;;;;;;2.07;1.10;;;;;;;;;;5052845;28;20667;-78
2022/08/07 09:41:22;;;;;;;1.80;1.13;;;;;;;;;;5069964;28;20177;-72
2022/08/07 09:44:01;;;;;;;1.87;1.60;;;;;;;;;;5073076;28;20196;-73
2022/08/07 09:46:29;;;;;;;2.13;1.10;;;;;;;;;;5058493;28;20629;-76
2022/08/07 09:49:14;;;;;;;1.43;1.17;;;;;;;;;;5076132;28;20627;-75
2022/08/07 09:51:54;;;;;;;1.37;1.10;;;;;;;;;;5067854;28;20191;-74
2022/08/07 09:54:25;;;;;;;2.30;1.40;;;;;;;;;;5068094;28;20196;-74
2022/08/07 09:57:06;;;;;;;3.37;1.37;;;;;;;;;;5061960;28;20561;-77
2022/08/07 09:59:44;;;;;;;2.10;1.23;;;;;;;;;;5065642;28;20172;-77
2022/08/07 10:02:13;;;;;;;1.10;1.00;;;;;;;;;;5070104;28;20177;-77
2022/08/07 10:04:40;;;;;;;0.90;0.90;;;;;;;;;;5071665;28;20257;-77
2022/08/07 10:07:17;;;;;;;1.40;1.10;;;;;;;;;;5076633;28;20180;-77
2022/08/07 10:09:50;;;;;;;1.10;0.90;;;;;;;;;;5070251;28;20180;-77
2022/08/07 10:12:34;;;;;;;1.83;1.00;;;;;;;;;;5063184;28;20213;-74
2022/08/07 10:15:19;;;;;;;1.33;1.03;;;;;;;;;;5064798;28;20290;-73
2022/08/07 10:18:10;;;;;;;2.80;1.20;;;;;;;;;;5062163;28;20215;-73
2022/08/07 10:20:55;;;;;;;1.63;1.00;;;;;;;;;;5065234;28;20186;-73
2022/08/07 10:23:37;;;;;;;2.47;1.07;;;;;;;;;;5067057;28;20182;-74
2022/08/07 10:26:06;;;;;;;1.10;1.00;;;;;;;;;;5067049;28;20216;-73
2022/08/07 10:29:08;;;;;;;1.33;1.00;;;;;;;;;;5083494;28;20222;-73
2022/08/07 10:31:37;;;;;;;1.33;1.10;;;;;;;;;;5031591;28;20276;-74
2022/08/07 10:34:27;;;;;;;1.00;0.90;;;;;;;;;;5068202;28;20193;-73
2022/08/07 10:37:13;;;;;;;1.40;1.03;;;;;;;;;;5072790;28;20235;-73
2022/08/07 10:39:58;;;;;;;3.23;1.20;;;;;;;;;;5071434;28;20188;-73
2022/08/07 10:42:32;;;;;;;2.30;1.20;;;;;;;;;;5067440;28;20230;-73
2022/08/07 10:45:02;;;;;;;1.07;0.90;;;;;;;;;;5075928;28;20206;-73
2022/08/07 10:47:38;;;;;;;2.20;1.00;;;;;;;;;;5063255;28;20203;-73
2022/08/07 10:50:07;;;;;;;1.53;1.00;;;;;;;;;;5092066;28;20273;-73
2022/08/07 10:52:53;;;;;;;1.47;1.00;;;;;;;;;;5052383;28;20182;-73
2022/08/07 10:55:23;;;;;;;1.50;0.83;;;;;;;;;;5076292;28;20201;-73
2022/08/07 10:58:08;;;;;;;4.90;3.30;;;;;;;;;;5080524;28;20295;-73
2022/08/07 11:00:40;;;;;;;1.00;0.90;;;;;;;;;;5066036;28;20171;-73
2022/08/07 11:03:14;;;;;;;0.90;0.90;;;;;;;;;;5070040;28;20854;-73
2022/08/07 11:05:52;;;;;;;0.70;0.70;;;;;;;;;;5082217;28;20195;-73
2022/08/07 11:08:43;;;;;;;1.03;0.90;;;;;;;;;;5065712;28;20192;-73
2022/08/07 11:11:15;;;;;;;1.30;0.83;;;;;;;;;;5065406;28;20662;-73
2022/08/07 11:13:44;;;;;;;2.77;0.90;;;;;;;;;;5061504;28;20177;-73
2022/08/07 11:16:26;;;;;;;1.17;1.00;;;;;;;;;;5064461;28;20208;-73
2022/08/07 11:19:03;;;;;;;2.07;1.17;;;;;;;;;;5076121;28;20239;-74
2022/08/07 11:21:33;;;;;;;0.80;0.80;;;;;;;;;;5066685;28;20187;-73
2022/08/07 11:24:03;;;;;;;0.80;0.80;;;;;;;;;;5070724;28;20236;-74
2022/08/07 11:26:34;;;;;;;1.17;0.80;;;;;;;;;;5070634;28;20201;-74
2022/08/07 11:29:19;;;;;;;1.97;1.00;;;;;;;;;;5058443;28;20197;-73
2022/08/07 11:31:48;;;;;;;0.80;0.80;;;;;;;;;;5064696;28;20184;-76
2022/08/07 11:34:16;;;;;;;2.53;1.00;;;;;;;;;;5083293;28;20191;-75
2022/08/07 11:36:57;;;;;;;1.30;1.20;;;;;;;;;;5073988;28;20564;-76
2022/08/07 11:39:29;;;;;;;1.30;1.00;;;;;;;;;;5074235;28;20199;-72
2022/08/07 11:42:07;;;;;;;1.20;0.83;;;;;;;;;;5067878;28;20185;-74
2022/08/07 11:44:40;;;;;;;1.27;1.00;;;;;;;;;;5061500;28;20189;-73
2022/08/07 11:47:06;;;;;;;2.23;0.80;;;;;;;;;;5070078;28;20270;-73
2022/08/07 11:49:47;;;;;;;1.00;0.90;;;;;;;;;;5076843;28;20626;-73
2022/08/07 11:52:26;;;;;;;1.37;1.00;;;;;;;;;;5068739;28;20184;-74
2022/08/07 11:55:09;;;;;;;1.40;0.80;;;;;;;;;;5087991;28;20223;-73
2022/08/07 11:57:41;;;;;;;0.97;0.87;;;;;;;;;;5074227;28;20253;-74
2022/08/07 12:00:14;;;;;;;0.93;0.70;;;;;;;;;;5072405;28;20193;-73
2022/08/07 12:02:59;;;;;;;1.73;0.90;;;;;;;;;;5075325;28;20166;-74
2022/08/07 12:05:31;;;;;;;1.13;0.90;;;;;;;;;;5056207;28;20197;-73
2022/08/07 12:08:20;;;;;;;0.87;0.87;;;;;;;;;;5072570;28;20192;-73
2022/08/07 12:10:54;;;;;;;0.90;0.70;;;;;;;;;;5071849;28;20718;-74
2022/08/07 12:13:23;;;;;;;1.33;0.90;;;;;;;;;;5063665;28;20190;-74
2022/08/07 12:15:55;;;;;;;1.00;0.87;;;;;;;;;;5065433;28;20656;-74
2022/08/07 12:18:34;;;;;;;1.00;0.90;;;;;;;;;;5070736;28;20265;-74
2022/08/07 12:21:19;;;;;;;1.30;1.00;;;;;;;;;;5071695;28;20188;-74
2022/08/07 12:23:56;;;;;;;1.23;1.00;;;;;;;;;;5072186;28;20175;-74
2022/08/07 12:26:31;;;;;;;1.07;0.80;;;;;;;;;;5070782;28;20206;-74
2022/08/07 12:29:18;;;;;;;1.17;0.80;;;;;;;;;;5072062;28;20187;-75
2022/08/07 12:31:50;;;;;;;2.83;0.90;;;;;;;;;;5071784;28;20217;-74
2022/08/07 12:34:18;;;;;;;2.40;0.90;;;;;;;;;;5071179;28;20223;-74
2022/08/07 12:36:45;;;;;;;1.43;0.90;;;;;;;;;;5071981;28;20273;-74
2022/08/07 12:39:12;;;;;;;1.00;0.90;;;;;;;;;;5069110;28;20184;-74
2022/08/07 12:41:38;;;;;;;1.10;1.00;;;;;;;;;;5070213;28;20244;-74
2022/08/07 12:44:06;;;;;;;1.07;0.90;;;;;;;;;;5071670;28;20184;-74
2022/08/07 12:46:35;;;;;;;1.00;0.80;;;;;;;;;;5066845;28;20226;-74
2022/08/07 12:49:08;;;;;;;2.20;1.00;;;;;;;;;;5055218;28;20182;-74
2022/08/07 12:51:41;;;;;;;2.00;0.80;;;;;;;;;;5060960;28;20189;-74
2022/08/07 12:54:10;;;;;;;0.93;0.80;;;;;;;;;;5067877;28;20189;-74
2022/08/07 12:56:45;;;;;;;0.80;0.80;;;;;;;;;;5071310;28;20632;-74
2022/08/07 12:59:16;;;;;;;1.40;1.00;;;;;;;;;;5071628;28;20589;-74
2022/08/07 13:01:49;;;;;;;1.20;0.80;;;;;;;;;;5070995;28;20180;-75
2022/08/07 13:04:25;;;;;;;0.80;0.80;;;;;;;;;;5071463;28;20183;-74
2022/08/07 13:07:10;;;;;;;0.97;0.90;;;;;;;;;;5068695;28;20261;-74
2022/08/07 13:09:51;;;;;;;1.27;0.77;;;;;;;;;;5071019;28;20829;-74
2022/08/07 13:12:31;;;;;;;1.67;0.90;;;;;;;;;;5061331;28;20284;-75
2022/08/07 13:15:23;;;;;;;1.17;0.70;;;;;;;;;;5068423;28;20210;-74
2022/08/07 13:17:55;;;;;;;0.90;0.90;;;;;;;;;;5065921;28;20218;-75
2022/08/07 13:20:24;;;;;;;1.13;0.70;;;;;;;;;;5071143;28;20268;-75
2022/08/07 13:22:54;;;;;;;2.70;0.80;;;;;;;;;;5070708;28;20226;-75
2022/08/07 13:25:33;;;;;;;1.00;0.80;;;;;;;;;;5054041;28;20684;-75
2022/08/07 13:28:03;;;;;;;1.07;0.70;;;;;;;;;;5064300;28;20196;-75
2022/08/07 13:30:30;;;;;;;1.23;1.10;;;;;;;;;;5059520;28;20672;-75
2022/08/07 13:33:05;;;;;;;1.57;0.90;;;;;;;;;;5070965;28;20370;-75
2022/08/07 13:35:35;;;;;;;1.43;0.90;;;;;;;;;;5076266;28;20213;-75
2022/08/07 13:38:08;;;;;;;0.70;0.70;;;;;;;;;;5074106;28;20212;-75
2022/08/07 13:40:48;;;;;;;2.28;0.80;;;;;;;;;;5065933;28;20658;-75
2022/08/07 13:43:15;;;;;;;0.70;0.70;;;;;;;;;;5053936;28;20184;-75
2022/08/07 13:45:43;;;;;;;1.08;0.95;;;;;;;;;;5063293;28;20190;-75
2022/08/07 13:48:12;;;;;;;0.93;0.73;;;;;;;;;;5064293;28;20551;-75
2022/08/07 13:50:40;;;;;;;1.00;0.73;;;;;;;;;;5082732;28;20187;-75
2022/08/07 13:53:07;;;;;;;0.57;0.57;;;;;;;;;;5066714;28;20522;-75
2022/08/07 13:55:34;;;;;;;1.08;0.80;;;;;;;;;;5071625;28;20588;-75
2022/08/07 14:00:54;;;;;;;0.98;0.80;;;;;;;;;;5068297;28;20852;-75
2022/08/07 14:03:24;;;;;;;1.15;0.95;;;;;;;;;;5059539;28;20178;-75
2022/08/07 14:05:52;;;;;;;1.20;0.70;;;;;;;;;;5056394;28;20209;-75
2022/08/07 14:08:19;;;;;;;0.93;0.73;;;;;;;;;;5074675;28;20594;-75
2022/08/07 14:10:47;;;;;;;1.25;0.80;;;;;;;;;;5078015;28;20181;-75
2022/08/07 14:13:15;;;;;;;0.60;0.60;;;;;;;;;;5066410;28;20184;-75
2022/08/07 14:15:50;;;;;;;1.88;0.70;;;;;;;;;;5055807;28;20209;-75
2022/08/07 14:18:21;;;;;;;1.20;0.73;;;;;;;;;;5062184;28;20772;-75
2022/08/07 14:20:49;;;;;;;1.05;0.70;;;;;;;;;;5064079;28;20316;-75
2022/08/07 14:23:27;;;;;;;2.35;0.75;;;;;;;;;;5064906;28;20227;-75
2022/08/07 14:26:13;;;;;;;1.27;0.80;;;;;;;;;;5081885;28;20202;-75
2022/08/07 14:28:41;;;;;;;0.85;0.68;;;;;;;;;;5068854;28;20250;-75
2022/08/07 14:31:07;;;;;;;1.17;0.75;;;;;;;;;;5085124;28;20178;-75
2022/08/07 14:33:34;;;;;;;0.82;0.60;;;;;;;;;;5064499;28;20178;-75
2022/08/07 14:36:01;;;;;;;0.85;0.65;;;;;;;;;;5075147;28;20557;-76
2022/08/07 14:38:29;;;;;;;1.45;0.80;;;;;;;;;;5075650;28;20189;-75
2022/08/07 14:40:56;;;;;;;0.80;0.80;;;;;;;;;;5075008;28;20562;-76
2022/08/07 14:43:24;;;;;;;1.67;0.75;;;;;;;;;;5074315;28;20241;-76
2022/08/07 14:45:54;;;;;;;0.80;0.80;;;;;;;;;;5085520;28;20222;-75
2022/08/07 14:48:22;;;;;;;0.80;0.70;;;;;;;;;;5069860;28;20190;-75
2022/08/07 14:50:52;;;;;;;1.00;0.85;;;;;;;;;;5073252;28;20265;-75
2022/08/07 14:53:22;;;;;;;3.33;0.85;;;;;;;;;;5072497;28;20652;-75
2022/08/07 14:55:48;;;;;;;0.82;0.70;;;;;;;;;;5058317;28;20198;-75
2022/08/07 14:58:16;;;;;;;0.70;0.70;;;;;;;;;;5071755;28;20705;-75
2022/08/07 15:00:43;;;;;;;2.25;0.77;;;;;;;;;;5072882;28;20193;-75
2022/08/07 15:03:11;;;;;;;2.42;0.70;;;;;;;;;;5061253;28;20191;-76
2022/08/07 15:05:38;;;;;;;1.15;0.70;;;;;;;;;;5064184;28;20201;-75
2022/08/07 15:08:07;;;;;;;1.55;0.80;;;;;;;;;;5084541;28;20188;-75
2022/08/07 15:10:34;;;;;;;0.77;0.77;;;;;;;;;;5086860;28;20333;-75
2022/08/07 15:13:03;;;;;;;0.80;0.80;;;;;;;;;;5069896;28;20264;-75